Onde está Alcoentre en Portugal?

Alcoentre está situado na região Lisboa em Portugal!

Buscar o nome de uma cidade:

Alcocer de Planes, Alcona Beach, Alcock, isla, Alcoy, Alcóntar

Aqui você vai encontrar a localização de Alcoentre em um mapa.
Para ver como ele atualmente parece, abaixo estão algumas fotos da região, com webcams online.
Você também pode encontrar a distância para as principais cidades da região e de cidades do resto do Portugal.

Todos os lugares do mundo chamado .

new

Onde está Alcoentre no mapa?


Webcams perto Alcoentre

Caldas da Rainha.


Caldas da Rainha - Dia
Actual
Caldas da Rainha - Actual

Vasco Carão > South: Garrocheira, Benavente - Airport.


Vasco Carão > South: Garrocheira, Benavente - Airport - Dia
Actual
Vasco Carão > South: Garrocheira, Benavente - Airport - Actual

Benavente > North-East: AIrport, METAR: BENAV 180005Z 36004KT 17/14 Q1015.


Benavente > North-East: AIrport, METAR: BENAV 180005Z 36004KT 17/14 Q1015 - Dia
Actual
Benavente > North-East: AIrport, METAR: BENAV 180005Z 36004KT 17/14 Q1015 - Actual

Webcams provided by webcams.travel

Distâncias

Onde está Alcoentre em relação a outros lugares?

Top 10 cidades em Lisboa e distância de Alcoentre.

Cidade#Populaçãokmmilhas
Lisbon15177985635
Amadora21788565534
Queluz31033985635
Loures4662304729
Rio de Mouro5546955836
Odivelas6546235031
São Domingos de Rana7467176440
Cascais8364366943
Alcabideche9333156641
Póvoa de Santa Iria10289004025

Top 10 cidades em Portugal e distância de Alcoentre.

Cidade # Populaçãokmmilhas
Lisbon15177985635
Porto2249630217135
Amadora31788565534
Braga4121393264164
Setúbal51171097647
Coimbra610658012175
Queluz71033985635
Funchal8980411022635
Vila Nova de Gaia970810216134
Loures10662304729